Latest Weather Observations for Marble Bar

IDW60801

Issued at 9:02 pm WST Saturday 13 February 2016 (issued every 30 minutes, with the page automatically refreshed every 10 minutes)

About weather observations | Map of weather stations | Latest weather observations for WA | Other Formats
Station Details ID: 004106 Name: MARBLE BAR Lat: -21.18 Lon: 119.75 Height: 182.3 m
Data from the previous 72 hours. | See also: Recent months at Marble Bar
Date/Time
WST
Temp
°C
App
Temp
°C
Dew
Point
Rel
Hum
%
Delta-T
°C
Wind Press
QNH
hPa
Press
MSL
hPa
Rain
since 9 am
mm
Dir
 
Spd
km/h
Gust
km/h
Spd
kts
Gust
kts
13/09:00pm 33.2 34.3 19.7 45 9.0 NNW 13 17 7 9 1009.4 1007.9 -
13/08:30pm 33.8 35.0 19.8 43 9.4 N 13 19 7 10 1008.9 1007.4 -
13/08:00pm 34.3 36.1 20.3 44 9.4 NW 11 19 6 10 1008.5 1006.9 -
13/07:30pm 34.6 36.1 21.3 46 9.1 NNW 15 24 8 13 1008.2 1006.6 -
13/07:00pm 35.3 36.2 21.6 45 9.4 NNW 19 30 10 16 1007.6 1006.0 -
13/06:30pm 36.4 36.6 21.4 41 10.3 NNW 22 32 12 17 1007.1 1005.5 -
13/06:00pm 37.7 37.1 20.5 36 11.7 NNW 24 37 13 20 1006.6 1005.0 -
13/05:30pm 39.9 39.9 20.1 32 13.5 NNW 20 35 11 19 1006.1 1004.6 -
13/05:00pm 42.6 40.5 5.9 11 20.9 W 6 13 3 7 1005.7 1004.2 -
13/04:30pm 43.4 41.0 5.2 10 21.5 WSW 7 13 4 7 1005.8 1004.3 -
13/04:00pm 43.3 40.8 6.5 11 21.2 NNW 9 13 5 7 1005.9 1004.4 -
13/03:30pm 41.8 41.1 9.9 15 19.1 NNE 4 13 2 7 1006.3 1004.7 -
13/03:00pm 42.3 40.8 9.2 14 19.7 NNE 7 11 4 6 1006.5 1004.9 -
13/02:30pm 43.1 41.1 6.3 11 21.0 W 6 13 3 7 1006.7 1005.1 -
13/02:00pm 43.2 41.6 8.8 13 20.4 NW 7 15 4 8 1007.1 1005.5 -
13/01:30pm 43.0 42.2 9.8 14 19.9 SW 4 15 2 8 1007.4 1005.8 -
13/01:00pm 42.2 40.7 9.2 14 19.6 S 7 13 4 7 1007.8 1006.2 -
13/12:30pm 42.1 40.8 10.1 15 19.2 S 7 13 4 7 1008.2 1006.6 -
13/12:00pm 41.7 40.8 12.5 18 18.1 SW 9 17 5 9 1008.5 1006.9 -
13/11:30am 40.9 41.1 14.3 21 16.8 SSE 6 11 3 6 1008.9 1007.4 -
13/11:00am 39.2 39.7 14.9 23 15.4 NW 6 13 3 7 1009.3 1007.8 -
13/10:30am 38.1 39.4 17.0 29 13.7 NW 6 15 3 8 1009.3 1007.8 -
13/10:00am 36.9 38.5 17.0 31 12.9 WSW 4 9 2 5 1009.6 1008.1 -
13/09:30am 35.1 37.2 20.2 41 10.0 NNW 9 19 5 10 1009.9 1008.4 -
13/09:00am 33.5 35.8 22.0 51 7.9 NNW 13 17 7 9 1010.2 1008.7 -
13/08:30am 32.7 35.1 21.5 51 7.6 NNW 11 20 6 11 1010.5 1009.0 -
13/08:00am 31.2 32.8 20.8 54 7.0 N 13 20 7 11 1010.6 1009.1 -
13/07:30am 30.2 30.9 18.0 48 7.9 NNE 11 17 6 9 1010.5 1009.0 -
13/07:00am 28.3 30.1 17.5 52 6.9 N 4 9 2 5 1009.8 1008.3 -
13/06:30am 27.5 28.4 16.5 51 6.9 E 7 13 4 7 1009.9 1008.4 -
13/06:00am 26.0 26.7 15.7 53 6.3 ESE 6 7 3 4 1009.1 1007.6 -
13/05:30am 26.5 27.0 13.9 45 7.5 NE 4 6 2 3 1008.8 1007.3 -
13/05:00am 26.5 26.6 13.9 45 7.5 NNW 6 7 3 4 1008.6 1007.0 -
13/04:30am 28.4 27.2 12.7 38 9.3 NE 11 20 6 11 1008.3 1006.7 -
13/04:00am 28.2 28.2 14.1 42 8.5 SW 7 9 4 5 1007.7 1006.1 -
13/03:30am 27.3 27.2 14.0 44 8.0 SSW 7 9 4 5 1007.8 1006.2 -
13/03:00am 27.5 28.3 13.8 43 8.2 SSE 2 4 1 2 1007.7 1006.1 -
13/02:30am 27.3 27.9 14.3 45 7.8 SE 4 6 2 3 1007.7 1006.1 -
13/02:00am 28.3 29.6 14.2 42 8.5 CALM 0 0 0 0 1007.7 1006.1 -
13/01:30am 29.3 30.1 12.7 36 9.8 CALM 0 0 0 0 1007.9 1006.3 -
13/01:00am 28.9 30.0 13.6 39 9.2 CALM 0 0 0 0 1008.1 1006.5 -
13/12:30am 29.6 30.4 12.5 35 10.1 CALM 0 0 0 0 1008.3 1006.7 -
13/12:00am 30.8 31.1 12.2 32 11.0 NE 2 7 1 4 1008.5 1006.9 -
 
Date/Time
WST
Temp
°C
App
Temp
°C
Dew
Point
Rel
Hum
%
Delta-T
°C
Wind Press
QNH
hPa
Press
MSL
hPa
Rain
since 9 am
mm
Dir
 
Spd
km/h
Gust
km/h
Spd
kts
Gust
kts
12/11:30pm 32.1 32.7 11.8 29 12.0 CALM 0 0 0 0 1008.7 1007.2 -
12/11:00pm 33.5 33.0 10.8 25 13.3 WSW 4 7 2 4 1009.0 1007.5 -
12/10:30pm 34.5 33.1 9.7 22 14.3 W 7 13 4 7 1009.1 1007.6 -
12/10:00pm 35.2 32.9 8.9 20 15.1 WNW 11 19 6 10 1009.0 1007.5 -
12/09:30pm 34.2 33.4 8.0 20 14.7 NW 2 4 1 2 1008.8 1007.3 -
12/09:00pm 36.3 34.4 7.4 17 16.3 NNW 7 13 4 7 1008.5 1006.9 -
12/08:30pm 37.0 35.2 7.9 17 16.6 NW 7 13 4 7 1008.0 1006.4 -
12/08:00pm 37.7 35.4 7.6 16 17.1 N 9 19 5 10 1007.7 1006.1 -
12/07:30pm 36.4 36.8 11.3 22 15.0 CALM 0 0 0 0 1007.3 1005.7 -
12/07:00pm 38.5 38.1 8.2 16 17.5 CALM 0 0 0 0 1006.8 1005.2 -
12/06:30pm 41.0 38.8 3.4 10 20.4 ENE 4 6 2 3 1006.4 1004.8 -
12/06:00pm 42.5 39.6 1.3 8 21.9 ENE 6 7 3 4 1006.1 1004.6 -
12/05:30pm 43.1 39.0 -0.1 7 22.5 E 11 17 6 9 1005.8 1004.3 -
12/05:00pm 43.5 40.2 0.2 7 22.8 ENE 7 13 4 7 1005.7 1004.2 -
12/04:30pm 44.2 41.0 0.7 7 23.1 SE 7 17 4 9 1005.8 1004.3 -
12/04:00pm 44.1 40.1 0.7 7 23.1 ESE 11 22 6 12 1005.8 1004.3 -
12/03:30pm 44.4 39.3 0.9 7 23.2 ESE 17 24 9 13 1006.0 1004.5 -
12/03:00pm 44.3 41.1 0.8 7 23.2 S 7 15 4 8 1006.3 1004.7 -
12/02:30pm 44.0 41.3 0.6 7 23.0 W 4 9 2 5 1006.5 1004.9 -
12/02:00pm 44.4 40.5 0.9 7 23.2 E 11 24 6 13 1006.8 1005.2 -
12/01:30pm 44.6 40.7 1.0 7 23.3 ESE 11 24 6 13 1007.1 1005.5 -
12/01:00pm 43.8 39.0 0.4 7 22.9 ENE 15 30 8 16 1007.6 1006.0 -
12/12:30pm 43.2 39.1 0.0 7 22.6 E 11 30 6 16 1007.9 1006.3 -
12/12:00pm 43.4 39.0 0.1 7 22.7 E 13 24 7 13 1008.5 1006.9 -
12/11:30am 43.0 39.6 1.7 8 22.1 E 9 20 5 11 1008.9 1007.4 -
12/11:00am 42.6 39.0 3.1 9 21.5 E 11 19 6 10 1009.2 1007.7 -
12/10:30am 41.5 38.4 3.7 10 20.7 ENE 9 13 5 7 1009.5 1008.0 -
12/10:00am 40.4 37.1 4.3 11 19.8 ESE 11 19 6 10 1009.9 1008.4 -
12/09:30am 39.4 35.5 3.5 11 19.4 ESE 13 24 7 13 1010.2 1008.7 -
12/09:00am 38.0 34.0 4.8 13 18.1 ESE 15 26 8 14 1010.4 1008.9 -
12/08:30am 37.1 32.6 4.1 13 17.7 SE 17 22 9 12 1010.4 1008.9 -
12/08:00am 35.3 32.8 6.6 17 15.9 ESE 9 15 5 8 1010.5 1009.0 -
12/07:30am 34.5 32.4 5.9 17 15.6 ESE 6 9 3 5 1010.6 1009.1 -
12/07:00am 31.0 31.3 10.9 29 11.7 CALM 0 2 0 1 1010.5 1009.0 -
12/06:30am 27.6 27.6 9.9 33 10.0 CALM 0 4 0 2 1010.2 1008.7 -
12/06:00am 25.9 26.0 10.1 37 8.9 CALM 0 0 0 0 1009.8 1008.3 -
12/05:30am 26.7 26.0 8.6 32 9.9 S 2 4 1 2 1009.7 1008.2 -
12/05:00am 28.3 26.6 7.5 27 11.3 N 6 11 3 6 1009.4 1007.9 -
12/04:30am 27.8 26.3 8.6 30 10.6 SW 6 11 3 6 1008.8 1007.3 -
12/04:00am 27.3 27.0 10.1 34 9.7 SSW 2 6 1 3 1008.6 1007.0 -
12/03:30am 28.3 27.9 8.1 28 11.1 CALM 0 2 0 1 1008.4 1006.8 -
12/03:00am 27.3 27.1 9.2 32 10.1 CALM 0 0 0 0 1008.4 1006.8 -
12/02:30am 27.9 27.7 9.2 31 10.4 CALM 0 0 0 0 1008.4 1006.8 -
12/02:00am 29.4 28.4 7.3 25 12.0 N 2 4 1 2 1008.6 1007.0 -
12/01:30am 29.8 28.6 6.5 23 12.5 NW 2 6 1 3 1008.6 1007.0 -
12/01:00am 30.4 28.4 6.3 22 13.0 NNW 6 7 3 4 1008.7 1007.2 -
12/12:30am 32.1 28.6 5.6 19 14.2 N 13 17 7 9 1008.9 1007.4 -
12/12:00am 34.0 31.5 3.7 15 15.9 ESE 6 9 3 5 1009.0 1007.5 -
 
Date/Time
WST
Temp
°C
App
Temp
°C
Dew
Point
Rel
Hum
%
Delta-T
°C
Wind Press
QNH
hPa
Press
MSL
hPa
Rain
since 9 am
mm
Dir
 
Spd
km/h
Gust
km/h
Spd
kts
Gust
kts
11/11:30pm 34.5 30.9 3.1 14 16.4 SE 11 13 6 7 1009.0 1007.5 -
11/11:00pm 35.8 32.4 2.0 12 17.5 SE 9 15 5 8 1009.2 1007.7 -
11/10:30pm 37.0 32.2 0.4 10 18.6 SE 15 20 8 11 1009.4 1007.9 -
11/10:00pm 37.4 32.7 0.7 10 18.8 SE 15 19 8 10 1009.2 1007.7 -
11/09:30pm 35.8 32.2 3.1 13 17.2 SE 11 15 6 8 1009.1 1007.6 -
11/09:00pm 35.6 32.6 5.9 16 16.3 SE 11 13 6 7 1008.9 1007.4 -
11/08:30pm 35.5 33.6 7.6 18 15.7 SE 7 7 4 4 1008.7 1007.2 -
11/08:00pm 35.2 34.2 10.3 22 14.6 SE 6 9 3 5 1008.4 1006.8 -
11/07:30pm 36.6 35.5 8.4 18 16.1 ESE 4 6 2 3 1008.0 1006.4 -
11/07:00pm 38.8 36.6 5.4 13 18.5 ESE 6 7 3 4 1007.6 1006.0 -
11/06:30pm 40.5 38.1 4.3 11 19.9 E 6 9 3 5 1007.2 1005.6 -
11/06:00pm 42.1 39.0 1.1 8 21.7 ESE 7 13 4 7 1007.0 1005.4 -
11/05:30pm 42.8 38.6 1.6 8 22.0 E 13 20 7 11 1006.8 1005.2 -
11/05:00pm 43.1 39.7 1.8 8 22.2 E 9 15 5 8 1006.6 1005.0 -
11/04:30pm 43.5 40.1 2.1 8 22.3 ESE 9 22 5 12 1006.4 1004.8 -
11/04:00pm 43.7 40.1 0.4 7 22.9 SE 9 22 5 12 1006.4 1004.8 -
11/03:30pm 44.1 40.8 2.5 8 22.6 ESE 9 24 5 13 1006.6 1005.0 -
11/03:00pm 43.5 38.6 2.1 8 22.4 E 17 30 9 16 1006.9 1005.3 -
11/02:30pm 43.5 40.2 0.2 7 22.7 NNE 7 13 4 7 1007.0 1005.4 -
11/02:00pm 43.4 38.1 2.0 8 22.3 ESE 19 30 10 16 1007.6 1006.0 -
11/01:30pm 43.5 40.1 2.1 8 22.3 ESE 9 28 5 15 1007.8 1006.2 -
11/01:00pm 43.5 38.6 2.1 8 22.4 ENE 17 28 9 15 1008.1 1006.5 -
11/12:30pm 43.1 38.5 1.8 8 22.1 ESE 15 26 8 14 1008.4 1006.8 -
11/12:00pm 42.8 37.7 3.2 9 21.7 E 19 28 10 15 1008.7 1007.2 -
11/11:30am 42.3 37.5 2.8 9 21.4 E 17 24 9 13 1009.0 1007.5 -
11/11:00am 42.3 37.2 2.8 9 21.4 ESE 19 28 10 15 1009.3 1007.8 -
11/10:30am 41.3 36.1 3.6 10 20.5 ESE 20 30 11 16 1009.6 1008.1 -
11/10:00am 40.8 36.1 3.2 10 20.3 SE 17 24 9 13 1010.0 1008.5 -
11/09:30am 39.4 34.6 4.7 12 19.0 ESE 19 28 10 15 1010.4 1008.9 -
11/09:00am 38.1 32.8 4.9 13 18.2 SE 22 33 12 18 1010.6 1009.1 -
11/08:30am 37.3 31.5 4.3 13 17.8 ESE 24 32 13 17 1010.6 1009.1 -
11/08:00am 36.6 32.0 5.8 15 17.0 SE 19 26 10 14 1010.7 1009.2 -
11/07:30am 34.0 32.0 7.1 19 14.9 SSW 7 11 4 6 1010.5 1009.0 -
11/07:00am 30.5 28.7 9.4 27 11.9 SW 9 13 5 7 1010.4 1008.9 -
11/06:30am 28.2 26.5 9.9 32 10.3 SW 9 11 5 6 1010.1 1008.6 -
11/06:00am 26.4 26.0 9.7 35 9.3 SSW 2 6 1 3 1009.9 1008.4 -
11/05:30am 26.7 26.6 9.5 34 9.6 CALM 0 0 0 0 1009.5 1008.0 -
11/05:00am 26.7 25.9 9.5 34 9.6 S 4 6 2 3 1009.3 1007.8 -
11/04:30am 26.5 25.7 9.8 35 9.3 SSW 4 7 2 4 1008.8 1007.3 -
11/04:00am 26.9 26.3 8.8 32 10.0 SSW 2 4 1 2 1008.7 1007.2 -
11/03:30am 27.9 26.5 8.7 30 10.6 NNW 6 9 3 5 1008.5 1006.9 -
11/03:00am 28.8 27.1 8.5 28 11.2 SSW 7 17 4 9 1008.2 1006.6 -
11/02:30am 28.9 28.5 9.6 30 10.9 SW 2 6 1 3 1008.1 1006.5 -
11/02:00am 29.7 28.5 8.2 26 11.9 SW 4 7 2 4 1008.3 1006.7 -
11/01:30am 30.9 29.1 8.0 24 12.7 SE 7 9 4 5 1008.4 1006.8 -
11/01:00am 31.3 29.5 7.1 22 13.3 SE 6 7 3 4 1008.5 1006.9 -
11/12:30am 32.4 30.1 5.8 19 14.3 ESE 7 9 4 5 1008.7 1007.2 -
11/12:00am 32.9 30.6 5.5 18 14.7 SE 7 9 4 5 1009.1 1007.6 -
 
Date/Time
WST
Temp
°C
App
Temp
°C
Dew
Point
Rel
Hum
%
Delta-T
°C
Wind Press
QNH
hPa
Press
MSL
hPa
Rain
since 9 am
mm
Dir
 
Spd
km/h
Gust
km/h
Spd
kts
Gust
kts
10/11:30pm 34.3 30.5 4.0 15 16.0 SE 13 17 7 9 1009.4 1007.9 -
10/11:00pm 34.5 30.5 5.0 16 15.9 ESE 15 22 8 12 1009.6 1008.1 -
10/10:30pm 34.6 30.6 5.1 16 15.9 ESE 15 19 8 10 1009.7 1008.2 -
10/10:00pm 33.8 31.2 6.2 18 15.1 SE 9 11 5 6 1009.6 1008.1 -
10/09:30pm 35.0 31.7 4.5 15 16.3 ESE 11 15 6 8 1009.6 1008.1 -

Other Formats:

Comma delimited format used in spreadsheet applications
http://www.bom.gov.au/fwo/IDW60801/IDW60801.95317.axf

JavaScript Object Notation format (JSON) in row-major order
http://www.bom.gov.au/fwo/IDW60801/IDW60801.95317.json